• Join FlightAware (Why Join?)
  • Login
  • US Flag 
03:36AM EDT


 

Airport Tracker/Info


-or-


 

Live Flight TrackerFlight Track Log ✈ TYR848 ✈ 20-Jun-2013 ✈ LATI / TIA - LOWW / VIE

Flight Track Log - Related Links

Times and Time Zones

All times are in EDT time to prevent confusion due to time zone crossing. See the TYR848 flight status page for this flight to view local times or setup timezone preferences in your user account.

Time Position Orientation Groundspeed Altitude Reporting Facility
EDT Latitude Longitude Course Direction KTS MPH feet Rate Location/Type
12:27PM 41.8576 19.5344 343° North  Level Estimated
12:28PM 41.9461 19.4969 342° North  Level Estimated
12:29PM 42.0346 19.4592 342° North  Level Estimated
12:30PM 42.1231 19.4215 342° North  Level Estimated
12:31PM 42.2116 19.3836 342° North  Level Estimated
12:32PM 42.3001 19.3457 342° North  Level Estimated
12:33PM 42.3886 19.3076 342° North  Level Estimated
12:34PM 42.4770 19.2694 342° North  Level Estimated
12:35PM 42.5654 19.2312 342° North  Level Estimated
12:36PM 42.6539 19.1928 342° North  Level Estimated
12:37PM 42.7423 19.1543 342° North  Level Estimated
12:38PM 42.8307 19.1157 342° North  Level Estimated
12:39PM 42.9191 19.0769 342° North  Level Estimated
12:40PM 43.0075 19.0381 342° North  Level Estimated
12:41PM 43.0958 18.9992 342° North  Level Estimated
12:42PM 43.1842 18.9601 342° North  Level Estimated
12:43PM 43.2725 18.9209 342° North  Level Estimated
12:44PM 43.3608 18.8817 342° North  Level Estimated
12:45PM 43.4492 18.8423 342° North  Level Estimated
12:46PM 43.5374 18.8027 342° North  Level Estimated
12:47PM 43.6257 18.7631 342° North  Level Estimated
12:48PM 43.7140 18.7234 342° North  Level Estimated
12:49PM 43.8023 18.6835 342° North  Level Estimated
12:50PM 43.8905 18.6435 342° North  Level Estimated
12:51PM 43.9787 18.6034 342° North  Level Estimated
12:52PM 44.0669 18.5632 342° North  Level Estimated
12:53PM 44.1551 18.5229 342° North  Level Estimated
12:54PM 44.2433 18.4824 342° North  Level Estimated
12:55PM 44.3315 18.4418 342° North  Level Estimated
12:56PM 44.4197 18.4011 342° North  Level Estimated
12:57PM 44.5078 18.3603 342° North  Level Estimated
12:58PM 44.5959 18.3194 342° North  Level Estimated
12:59PM 44.6840 18.2783 342° North  Level Estimated
01:00PM 44.7721 18.2371 342° North  Level Estimated
01:01PM 44.8602 18.1958 342° North  Level Estimated
01:02PM 44.9483 18.1543 342° North  Level Estimated
01:03PM 45.0363 18.1127 342° North  Level Estimated
01:04PM 45.1244 18.0710 342° North  Level Estimated
01:05PM 45.2124 18.0292 341° North  Level Estimated
01:06PM 45.3004 17.9872 341° North  Level Estimated
01:07PM 45.3884 17.9451 341° North  Level Estimated
01:08PM 45.4764 17.9029 341° North  Level Estimated
01:09PM 45.5643 17.8605 341° North  Level Estimated
01:10PM 45.6523 17.8181 341° North  Level Estimated
01:11PM 45.7402 17.7754 341° North  Level Estimated
01:12PM 45.8281 17.7327 341° North  Level Estimated
01:13PM 45.9160 17.6898 341° North  Level Estimated
01:14PM 46.0039 17.6468 341° North  Level Estimated
01:15PM 46.0918 17.6036 341° North  Level Estimated
01:16PM 46.1796 17.5603 341° North  Level Estimated
01:17PM 46.2675 17.5168 341° North  Level Estimated
01:18PM 46.3553 17.4733 341° North  Level Estimated
01:19PM 46.4431 17.4295 341° North  Level Estimated
01:20PM 46.5309 17.3857 341° North  Level Estimated
01:21PM 46.6186 17.3417 341° North  Level Estimated
01:22PM 46.7064 17.2975 341° North  Level Estimated
01:23PM 46.7941 17.2532 341° North  Level Estimated
01:24PM 46.8818 17.2088 341° North  Level Estimated
01:25PM 46.9695 17.1642 341° North  Level Estimated
01:26PM 47.0572 17.1195 341° North  Level Estimated
01:27PM 47.1449 17.0746 341° North  Level Estimated
01:28PM 47.2325 17.0296 341° North  Level Estimated
01:29PM 47.3201 16.9844 341° North  Level Estimated
01:30PM 47.4078 16.9391 341° North  Level Estimated
01:31PM 47.4953 16.8936 341° North  Level Estimated
01:32PM 47.5829 16.8479 341° North  Level Estimated
01:33PM 47.6705 16.8022 341° North  Level Estimated
01:34PM 47.7580 16.7562 341° North  Level Estimated
01:35PM 47.8455 16.7101 341° North  Level Estimated
01:36PM 47.9330 16.6639 341° North  Level Estimated
01:37PM 48.0205 16.6175 340° North  Level Estimated
01:38PM 48.1080 16.5709 340° North  Level Estimated
01:39PM 48.1103 16.5697 340° North  Level Estimated
01:40PM 48.1103 16.5697 146° Southeast  Level Estimated
01:41PM 48.1103 16.5697 146° Southeast  Level Estimated
01:42PM 48.1103 16.5697 146° Southeast  Level Estimated
01:43PM 48.1103 16.5697 146° Southeast  Level Estimated
01:44PM 48.1103 16.5697 146° Southeast  Level Estimated
01:45PM 48.1103 16.5697 146° Southeast  Level Estimated
01:46PM 48.1103 16.5697 146° Southeast  Level Estimated
01:47PM 48.1103 16.5697 146° Southeast  Level Estimated
01:48PM 48.1103 16.5697 146° Southeast  Level Estimated
01:49PM 48.1103 16.5697 146° Southeast  Level Estimated